createdAt,value
2019-05-20T00:01:16.751Z,13.80
2019-05-20T00:03:44.305Z,14.35
2019-05-20T00:06:11.501Z,14.40
2019-05-20T00:08:38.665Z,14.90
2019-05-20T00:11:06.463Z,14.30
2019-05-20T00:13:33.614Z,14.10
2019-05-20T00:16:01.462Z,14.47
2019-05-20T00:18:28.995Z,14.73
2019-05-20T00:20:56.522Z,14.78
2019-05-20T00:23:25.392Z,14.37
2019-05-20T00:25:53.005Z,15.38
2019-05-20T00:28:20.616Z,15.80
2019-05-20T00:30:47.729Z,15.93
2019-05-20T00:33:15.413Z,16.67
2019-05-20T00:35:42.521Z,15.70
2019-05-20T00:38:10.845Z,15.93
2019-05-20T00:40:38.052Z,15.80
2019-05-20T00:43:05.423Z,16.57
2019-05-20T00:45:32.994Z,16.70
2019-05-20T00:48:01.265Z,17.02
2019-05-20T00:50:28.949Z,16.75
2019-05-20T00:52:57.556Z,17.15
2019-05-20T00:55:25.329Z,16.73
2019-05-20T00:57:52.518Z,17.40
2019-05-20T01:00:21.813Z,17.15
2019-05-20T01:02:56.419Z,16.97
2019-05-20T01:05:17.707Z,16.30
2019-05-20T01:07:45.295Z,16.48
2019-05-20T01:10:13.108Z,16.65
2019-05-20T01:12:40.351Z,16.73
2019-05-20T01:15:07.716Z,16.45
2019-05-20T01:17:34.850Z,16.15
2019-05-20T01:20:02.339Z,16.37
2019-05-20T01:22:29.523Z,15.58
2019-05-20T01:24:58.593Z,15.88
2019-05-20T01:27:26.076Z,17.05
2019-05-20T01:29:53.158Z,16.30
2019-05-20T01:32:20.198Z,15.35
2019-05-20T01:34:47.285Z,15.35
2019-05-20T01:37:14.500Z,15.68
2019-05-20T01:39:41.743Z,15.83
2019-05-20T01:42:09.306Z,15.08
2019-05-20T01:44:36.619Z,15.13
2019-05-20T01:47:03.704Z,16.00
2019-05-20T01:49:33.219Z,15.53
2019-05-20T01:52:01.768Z,15.95
2019-05-20T01:54:28.716Z,16.97
2019-05-20T01:56:57.749Z,17.40
2019-05-20T01:59:25.064Z,16.85
2019-05-20T02:01:52.251Z,16.75
2019-05-20T02:04:19.261Z,15.48
2019-05-20T02:06:46.877Z,17.05
2019-05-20T02:09:14.001Z,16.37
2019-05-20T02:11:42.890Z,16.87
2019-05-20T02:14:15.188Z,18.02
2019-05-20T02:16:42.975Z,17.45
2019-05-20T02:19:10.141Z,17.32
2019-05-20T02:21:37.551Z,17.77
2019-05-20T02:24:05.922Z,18.60
2019-05-20T02:26:32.946Z,17.55
2019-05-20T02:28:59.957Z,17.87
2019-05-20T02:31:28.996Z,18.30
2019-05-20T02:33:56.162Z,18.60
2019-05-20T02:36:23.384Z,18.82
2019-05-20T02:38:50.875Z,19.12
2019-05-20T02:41:17.995Z,19.52
2019-05-20T02:43:46.275Z,19.35
2019-05-20T02:46:13.322Z,19.45
2019-05-20T02:48:40.636Z,20.50
2019-05-20T02:51:10.397Z,20.40
2019-05-20T02:53:39.313Z,19.92
2019-05-20T02:56:07.653Z,20.40
2019-05-20T02:58:35.944Z,19.67
2019-05-20T03:01:03.522Z,20.02
2019-05-20T03:03:32.161Z,20.43
2019-05-20T03:05:59.112Z,19.92
2019-05-20T03:08:26.270Z,20.75
2019-05-20T03:10:53.299Z,20.65
2019-05-20T03:13:20.574Z,20.37
2019-05-20T03:15:48.193Z,20.68
2019-05-20T03:18:15.673Z,20.52
2019-05-20T03:20:42.839Z,19.90
2019-05-20T03:23:10.553Z,20.05
2019-05-20T03:25:37.746Z,21.05
2019-05-20T03:28:04.914Z,21.07
2019-05-20T03:30:31.845Z,20.95
2019-05-20T03:32:59.070Z,21.17
2019-05-20T03:35:26.291Z,20.97
2019-05-20T03:37:53.465Z,20.70
2019-05-20T03:40:20.563Z,20.27
2019-05-20T03:42:47.486Z,20.50
2019-05-20T03:45:14.660Z,20.43
2019-05-20T03:47:41.807Z,20.35
2019-05-20T03:50:08.927Z,20.77
2019-05-20T03:52:36.083Z,21.37
2019-05-20T03:55:03.449Z,23.45
2019-05-20T03:57:32.561Z,21.93
2019-05-20T03:59:59.640Z,22.20
2019-05-20T04:02:26.808Z,21.85
2019-05-20T04:05:01.969Z,22.30
2019-05-20T04:07:23.213Z,22.70
2019-05-20T04:09:50.163Z,22.22
2019-05-20T04:12:17.348Z,22.70
2019-05-20T04:14:46.093Z,22.37
2019-05-20T04:17:13.438Z,22.35
2019-05-20T04:19:40.645Z,23.00
2019-05-20T04:22:07.831Z,22.90
2019-05-20T04:24:35.287Z,22.87
2019-05-20T04:27:02.423Z,22.60
2019-05-20T04:29:30.067Z,22.32
2019-05-20T04:31:57.237Z,22.63
2019-05-20T04:34:24.890Z,22.67
2019-05-20T04:36:51.948Z,23.45
2019-05-20T04:39:20.727Z,21.55
2019-05-20T04:41:48.189Z,23.15
2019-05-20T04:44:15.368Z,23.73
2019-05-20T04:46:44.686Z,23.43
2019-05-20T04:49:11.921Z,23.75
2019-05-20T04:51:39.655Z,24.40
2019-05-20T04:54:07.708Z,24.45
2019-05-20T04:56:35.410Z,24.50
2019-05-20T04:59:02.945Z,25.10
2019-05-20T05:01:30.526Z,24.95
2019-05-20T05:03:57.637Z,23.95
2019-05-20T05:06:25.222Z,24.27
2019-05-20T05:08:53.080Z,25.12
2019-05-20T05:11:20.641Z,25.80
2019-05-20T05:13:48.648Z,25.30
2019-05-20T05:16:18.003Z,25.25
2019-05-20T05:18:47.079Z,26.50
2019-05-20T05:21:16.062Z,26.50
2019-05-20T05:23:58.072Z,26.63
2019-05-20T05:26:13.344Z,26.52
2019-05-20T05:28:40.309Z,25.60
2019-05-20T05:31:07.850Z,25.60
2019-05-20T05:33:35.109Z,26.45
2019-05-20T05:36:02.299Z,25.35
2019-05-20T05:38:31.209Z,26.17
2019-05-20T05:40:59.572Z,26.40
2019-05-20T05:43:26.784Z,27.20
2019-05-20T05:45:54.347Z,29.23
2019-05-20T05:48:21.507Z,29.30
2019-05-20T05:50:49.633Z,32.90
2019-05-20T05:53:17.542Z,33.98
2019-05-20T05:55:44.790Z,31.87
2019-05-20T05:58:11.939Z,32.23
2019-05-20T06:00:38.908Z,32.42
2019-05-20T06:03:06.052Z,31.75
2019-05-20T06:05:33.868Z,31.68
2019-05-20T06:08:01.019Z,31.17
2019-05-20T06:10:30.230Z,30.35
2019-05-20T06:12:57.170Z,30.12
2019-05-20T06:15:24.380Z,29.67
2019-05-20T06:17:51.874Z,30.20
2019-05-20T06:20:20.958Z,28.87
2019-05-20T06:22:48.021Z,29.10
2019-05-20T06:25:16.074Z,29.92
2019-05-20T06:27:43.150Z,29.35
2019-05-20T06:30:10.552Z,29.00
2019-05-20T06:32:37.655Z,28.07
2019-05-20T06:35:07.463Z,27.42
2019-05-20T06:37:37.025Z,28.42
2019-05-20T06:40:10.583Z,28.47
2019-05-20T06:42:38.501Z,26.62
2019-05-20T06:45:06.616Z,26.37
2019-05-20T06:47:35.665Z,26.23
2019-05-20T06:50:03.189Z,25.02
2019-05-20T06:52:35.771Z,23.80
2019-05-20T06:54:59.428Z,24.05
2019-05-20T06:57:27.463Z,22.52
2019-05-20T06:59:54.820Z,21.37
2019-05-20T07:02:22.016Z,22.50
2019-05-20T07:04:49.469Z,21.75
2019-05-20T07:07:20.974Z,20.60
2019-05-20T07:09:45.860Z,20.15
2019-05-20T07:12:14.216Z,20.48
2019-05-20T07:14:41.229Z,19.30
2019-05-20T07:17:08.757Z,19.85
2019-05-20T07:19:35.942Z,19.37
2019-05-20T07:22:03.077Z,19.77
2019-05-20T07:24:30.644Z,18.85
2019-05-20T07:26:57.694Z,20.05
2019-05-20T07:29:25.244Z,20.23
2019-05-20T07:31:52.381Z,19.50
2019-05-20T07:34:19.961Z,19.95
2019-05-20T07:37:01.895Z,18.82
2019-05-20T07:39:15.996Z,19.57
2019-05-20T07:41:43.944Z,18.70
2019-05-20T07:44:10.912Z,18.30
2019-05-20T07:46:37.965Z,18.80
2019-05-20T07:49:06.128Z,18.07
2019-05-20T07:51:34.988Z,19.90
2019-05-20T07:54:03.055Z,18.98
2019-05-20T07:56:32.795Z,17.82
2019-05-20T07:59:01.236Z,19.05
2019-05-20T08:01:29.655Z,19.23
2019-05-20T08:03:56.795Z,18.90
2019-05-20T08:06:24.213Z,19.87
2019-05-20T08:08:51.309Z,19.67
2019-05-20T08:11:20.018Z,19.45
2019-05-20T08:13:47.037Z,19.80
2019-05-20T08:16:14.224Z,20.37
2019-05-20T08:18:42.747Z,19.65
2019-05-20T08:21:10.452Z,18.70
2019-05-20T08:23:37.580Z,18.25
2019-05-20T08:26:06.087Z,18.62
2019-05-20T08:28:35.187Z,20.17
2019-05-20T08:31:02.376Z,19.70
2019-05-20T08:33:29.577Z,20.55
2019-05-20T08:35:56.726Z,19.37
2019-05-20T08:38:24.314Z,20.50
2019-05-20T08:40:53.557Z,20.35
2019-05-20T08:43:22.587Z,20.00
2019-05-20T08:45:49.717Z,19.73
2019-05-20T08:50:43.502Z,16.75
2019-05-20T08:53:10.548Z,17.02
2019-05-20T08:55:37.721Z,15.40
2019-05-20T08:58:07.211Z,16.95
2019-05-20T09:00:34.342Z,15.85
2019-05-20T09:03:01.694Z,16.97
2019-05-20T09:05:29.047Z,16.17
2019-05-20T09:08:03.165Z,17.60
2019-05-20T09:12:51.310Z,17.62
2019-05-20T09:15:19.214Z,15.63
2019-05-20T09:17:46.326Z,17.30
2019-05-20T09:20:13.707Z,20.65
2019-05-20T09:25:09.725Z,15.15
2019-05-20T09:27:36.747Z,17.12
2019-05-20T09:32:30.993Z,17.02
2019-05-20T09:34:58.645Z,19.92
2019-05-20T09:37:25.691Z,20.92
2019-05-20T09:39:53.509Z,20.85
2019-05-20T09:42:20.830Z,20.23
2019-05-20T09:44:48.506Z,21.77
2019-05-20T09:47:15.691Z,21.95
2019-05-20T09:49:43.415Z,20.48
2019-05-20T09:52:10.677Z,22.00
2019-05-20T09:54:38.429Z,22.20
2019-05-20T09:57:06.167Z,21.85
2019-05-20T09:59:42.733Z,22.62
2019-05-20T10:02:02.185Z,20.87
2019-05-20T10:04:29.263Z,22.30
2019-05-20T10:06:56.784Z,21.30
2019-05-20T10:09:23.951Z,21.68
2019-05-20T10:11:52.573Z,21.68
2019-05-20T10:14:19.805Z,21.35
2019-05-20T10:16:47.013Z,20.95
2019-05-20T10:19:14.632Z,21.17
2019-05-20T10:21:41.728Z,20.62
2019-05-20T10:24:10.085Z,20.85
2019-05-20T10:26:37.092Z,20.47
2019-05-20T10:29:07.936Z,20.80
2019-05-20T10:31:36.269Z,19.48
2019-05-20T10:34:03.868Z,20.02
2019-05-20T10:36:31.078Z,20.60
2019-05-20T10:38:59.631Z,19.73
2019-05-20T10:41:29.618Z,17.15
2019-05-20T10:43:57.865Z,16.37
2019-05-20T10:46:25.743Z,16.17
2019-05-20T10:48:53.775Z,17.10
2019-05-20T10:51:21.286Z,17.05
2019-05-20T10:53:48.893Z,16.80
2019-05-20T10:56:16.393Z,19.12
2019-05-20T11:01:10.922Z,16.50
2019-05-20T11:03:38.639Z,16.70
2019-05-20T11:06:06.024Z,17.23
2019-05-20T11:08:35.175Z,16.97
2019-05-20T11:11:02.159Z,16.50
2019-05-20T11:13:29.625Z,18.57
2019-05-20T11:15:56.725Z,18.75
2019-05-20T11:18:24.644Z,17.98
2019-05-20T11:20:53.920Z,17.40
2019-05-20T11:23:20.966Z,17.35
2019-05-20T11:25:50.358Z,18.90
2019-05-20T11:28:17.279Z,18.65
2019-05-20T11:30:44.971Z,17.92
2019-05-20T11:33:12.420Z,17.27
2019-05-20T11:35:39.484Z,18.07
2019-05-20T11:38:06.954Z,17.82
2019-05-20T11:40:34.084Z,17.30
2019-05-20T11:43:01.217Z,17.40
2019-05-20T11:45:28.921Z,18.00
2019-05-20T11:47:56.118Z,17.40
2019-05-20T11:50:23.318Z,17.77
2019-05-20T11:52:50.845Z,18.62
2019-05-20T11:55:18.421Z,18.02
2019-05-20T11:57:45.786Z,16.80
2019-05-20T12:00:13.400Z,16.35
2019-05-20T12:02:41.690Z,17.55
2019-05-20T12:05:09.026Z,17.05
2019-05-20T12:07:36.227Z,16.62
2019-05-20T12:12:29.684Z,15.20
2019-05-20T12:14:56.802Z,16.45
2019-05-20T12:19:51.970Z,16.77
2019-05-20T12:22:19.101Z,16.27
2019-05-20T12:24:46.818Z,15.95
2019-05-20T12:27:14.124Z,13.95
2019-05-20T12:29:41.240Z,13.68
2019-05-20T12:32:08.830Z,14.83
2019-05-20T12:34:37.000Z,15.75
2019-05-20T12:37:04.551Z,21.35
2019-05-20T12:39:31.739Z,22.30
2019-05-20T12:41:58.863Z,21.30
2019-05-20T12:44:28.220Z,22.93
2019-05-20T12:46:55.383Z,24.12
2019-05-20T12:49:22.890Z,23.92
2019-05-20T12:51:50.362Z,23.90
2019-05-20T12:54:18.081Z,26.17
2019-05-20T12:56:45.304Z,27.10
2019-05-20T12:59:12.488Z,29.92
2019-05-20T13:01:39.547Z,31.62
2019-05-20T13:04:06.926Z,25.08
2019-05-20T13:06:35.464Z,25.92
2019-05-20T13:09:03.141Z,19.65
2019-05-20T13:11:30.289Z,24.17
2019-05-20T13:13:57.414Z,18.25
2019-05-20T13:16:26.227Z,24.50
2019-05-20T13:18:56.031Z,23.67
2019-05-20T13:21:22.372Z,22.55
2019-05-20T13:23:49.524Z,17.20
2019-05-20T13:26:17.014Z,16.63
2019-05-20T13:28:44.336Z,12.78
2019-05-20T13:31:11.337Z,11.50
2019-05-20T13:33:38.544Z,11.22
2019-05-20T13:36:05.754Z,9.58
2019-05-20T13:38:34.047Z,9.35
2019-05-20T13:41:01.201Z,10.10
2019-05-20T13:43:28.236Z,8.68
2019-05-20T13:45:55.415Z,8.95
2019-05-20T13:48:22.623Z,9.07
2019-05-20T13:50:49.805Z,9.30
2019-05-20T13:53:18.357Z,9.23
2019-05-20T13:55:45.750Z,9.40
2019-05-20T13:58:12.960Z,8.47
2019-05-20T14:00:40.105Z,9.50
2019-05-20T14:03:08.622Z,9.20
2019-05-20T14:05:35.743Z,9.60
2019-05-20T14:08:03.726Z,9.83
2019-05-20T14:10:30.866Z,10.00
2019-05-20T14:12:58.149Z,10.45
2019-05-20T14:15:25.404Z,11.33
2019-05-20T14:17:52.690Z,10.73
2019-05-20T14:20:19.792Z,13.00
2019-05-20T14:22:46.972Z,12.40
2019-05-20T14:25:14.314Z,12.33
2019-05-20T14:27:41.510Z,12.00
2019-05-20T14:30:09.215Z,11.35
2019-05-20T14:32:36.573Z,11.60
2019-05-20T14:35:03.733Z,13.10
2019-05-20T14:37:30.934Z,12.90
2019-05-20T14:40:00.455Z,14.87
2019-05-20T14:42:27.622Z,12.50
2019-05-20T14:44:56.461Z,11.75
2019-05-20T14:47:23.458Z,10.97
2019-05-20T14:49:50.863Z,11.05
2019-05-20T14:52:18.094Z,10.88
2019-05-20T14:54:45.216Z,11.43
2019-05-20T14:57:12.742Z,10.88
2019-05-20T14:59:40.333Z,9.35
2019-05-20T15:02:07.500Z,9.30
2019-05-20T15:04:34.916Z,10.13
2019-05-20T15:07:02.410Z,8.70
2019-05-20T15:09:29.932Z,8.98
2019-05-20T15:11:57.201Z,8.70
2019-05-20T15:14:24.382Z,7.92
2019-05-20T15:16:51.510Z,8.15
2019-05-20T15:19:18.665Z,9.13
2019-05-20T15:21:47.077Z,8.85
2019-05-20T15:24:14.711Z,9.10
2019-05-20T15:26:41.931Z,8.95
2019-05-20T15:29:25.471Z,8.90
2019-05-20T15:31:39.153Z,8.08
2019-05-20T15:34:06.974Z,8.80
2019-05-20T15:36:34.041Z,9.10
2019-05-20T15:39:01.588Z,9.05
2019-05-20T15:41:29.399Z,9.17
2019-05-20T15:43:57.338Z,10.08
2019-05-20T15:46:24.633Z,10.70
2019-05-20T15:48:51.849Z,11.28
2019-05-20T15:51:20.590Z,11.90
2019-05-20T15:53:47.759Z,12.88
2019-05-20T15:56:15.128Z,13.62
2019-05-20T15:58:42.153Z,13.90
2019-05-20T16:01:09.285Z,13.85
2019-05-20T16:03:36.329Z,14.85
2019-05-20T16:06:04.029Z,14.87
2019-05-20T16:08:31.273Z,16.52
2019-05-20T16:10:58.333Z,15.30
2019-05-20T16:13:25.541Z,15.90
2019-05-20T16:15:54.205Z,16.70
2019-05-20T16:18:21.254Z,15.03
2019-05-20T16:20:48.443Z,13.10
2019-05-20T16:23:15.983Z,12.73
2019-05-20T16:25:43.164Z,13.22
2019-05-20T16:28:11.041Z,13.20
2019-05-20T16:30:38.285Z,13.80
2019-05-20T16:33:06.514Z,13.00
2019-05-20T16:35:33.659Z,13.78
2019-05-20T16:38:01.283Z,13.10
2019-05-20T16:40:28.884Z,13.98
2019-05-20T16:42:56.392Z,12.68
2019-05-20T16:45:23.630Z,14.05
2019-05-20T16:47:50.795Z,15.00
2019-05-20T16:50:18.037Z,14.75
2019-05-20T16:52:45.674Z,14.90
2019-05-20T16:55:12.924Z,14.60
2019-05-20T16:57:40.367Z,13.70
2019-05-20T17:00:20.950Z,16.00
2019-05-20T17:02:36.951Z,16.55
2019-05-20T17:05:04.353Z,16.17
2019-05-20T17:07:32.098Z,17.87
2019-05-20T17:10:00.137Z,19.17
2019-05-20T17:12:27.289Z,20.90
2019-05-20T17:14:54.919Z,21.57
2019-05-20T17:17:22.304Z,21.42
2019-05-20T17:19:51.049Z,22.52
2019-05-20T17:22:18.754Z,24.43
2019-05-20T17:24:46.181Z,24.75
2019-05-20T17:27:13.362Z,25.75
2019-05-20T17:29:40.467Z,23.95
2019-05-20T17:32:07.939Z,27.30
2019-05-20T17:34:35.438Z,22.95
2019-05-20T17:37:02.984Z,25.43
2019-05-20T17:39:30.264Z,27.65
2019-05-20T17:41:58.922Z,25.92
2019-05-20T17:44:26.482Z,29.18
2019-05-20T17:46:53.523Z,25.35
2019-05-20T17:49:20.644Z,26.52
2019-05-20T17:51:48.664Z,26.97
2019-05-20T17:54:15.913Z,26.80
2019-05-20T17:56:43.145Z,26.07
2019-05-20T17:59:10.289Z,26.48
2019-05-20T18:01:38.240Z,26.82
2019-05-20T18:04:05.419Z,26.07
2019-05-20T18:06:32.902Z,26.30
2019-05-20T18:09:01.052Z,28.35
2019-05-20T18:11:28.063Z,26.42
2019-05-20T18:13:56.372Z,28.55
2019-05-20T18:16:24.007Z,29.50
2019-05-20T18:18:51.571Z,27.70
2019-05-20T18:21:18.840Z,28.50
2019-05-20T18:23:46.063Z,24.77
2019-05-20T18:26:13.548Z,28.02
2019-05-20T18:28:40.590Z,29.30
2019-05-20T18:31:07.772Z,27.33
2019-05-20T18:33:35.278Z,23.92
2019-05-20T18:36:02.370Z,24.55
2019-05-20T18:38:29.505Z,25.75
2019-05-20T18:40:57.028Z,25.55
2019-05-20T18:43:24.152Z,17.95
2019-05-20T18:45:52.953Z,22.20
2019-05-20T18:48:21.815Z,22.27
2019-05-20T18:50:49.256Z,21.80
2019-05-20T18:53:16.451Z,21.93
2019-05-20T18:55:43.665Z,25.62
2019-05-20T18:58:11.380Z,25.82
2019-05-20T19:00:40.225Z,26.30
2019-05-20T19:03:07.777Z,29.50
2019-05-20T19:05:35.448Z,31.60
2019-05-20T19:08:02.976Z,32.00
2019-05-20T19:10:30.087Z,29.70
2019-05-20T19:13:20.058Z,29.70
2019-05-20T19:15:47.537Z,29.57
2019-05-20T19:18:14.842Z,25.85
2019-05-20T19:20:42.056Z,22.45
2019-05-20T19:23:09.035Z,23.80
2019-05-20T19:25:38.125Z,23.42
2019-05-20T19:28:05.423Z,23.65
2019-05-20T19:30:33.562Z,22.90
2019-05-20T19:33:00.956Z,24.35
2019-05-20T19:35:28.656Z,23.35
2019-05-20T19:37:55.964Z,22.52
2019-05-20T19:40:23.460Z,19.57
2019-05-20T19:42:50.594Z,18.77
2019-05-20T19:45:17.896Z,20.60
2019-05-20T19:47:45.596Z,19.17
2019-05-20T19:50:13.046Z,17.35
2019-05-20T19:52:40.213Z,17.05
2019-05-20T19:55:07.804Z,15.35
2019-05-20T19:57:34.925Z,15.63
2019-05-20T20:00:02.408Z,14.15
2019-05-20T20:02:29.718Z,14.07
2019-05-20T20:04:56.946Z,12.78
2019-05-20T20:07:24.336Z,12.00
2019-05-20T20:09:51.923Z,10.57
2019-05-20T20:12:19.545Z,9.87
2019-05-20T20:14:46.849Z,9.18
2019-05-20T20:17:14.268Z,8.48
2019-05-20T20:19:42.593Z,9.23
2019-05-20T20:22:11.143Z,10.28
2019-05-20T20:24:38.653Z,9.88
2019-05-20T20:27:06.276Z,10.05
2019-05-20T20:29:34.385Z,9.55
2019-05-20T20:32:03.091Z,10.60
2019-05-20T20:34:31.607Z,10.40
2019-05-20T20:36:58.719Z,11.00
2019-05-20T20:39:26.516Z,11.20
2019-05-20T20:41:54.043Z,11.33
2019-05-20T20:44:21.229Z,11.40
2019-05-20T20:46:50.688Z,9.33
2019-05-20T20:49:18.085Z,9.60
2019-05-20T20:51:45.218Z,10.53
2019-05-20T20:54:46.530Z,10.63
2019-05-20T20:57:13.608Z,11.05
2019-05-20T20:59:40.656Z,10.88
2019-05-20T21:02:07.932Z,9.18
2019-05-20T21:04:35.048Z,8.88
2019-05-20T21:07:03.740Z,8.03
2019-05-20T21:09:32.678Z,6.70
2019-05-20T21:12:01.502Z,7.23
2019-05-20T21:14:32.397Z,7.35
2019-05-20T21:17:00.703Z,4.87
2019-05-20T21:19:27.812Z,5.30
2019-05-20T21:21:55.268Z,5.40
2019-05-20T21:24:22.936Z,5.50
2019-05-20T21:26:51.688Z,5.85
2019-05-20T21:29:18.867Z,5.80
2019-05-20T21:31:45.990Z,5.95
2019-05-20T21:34:13.079Z,6.00
2019-05-20T21:36:47.606Z,7.10
2019-05-20T21:39:09.297Z,7.15
2019-05-20T21:41:36.683Z,8.80
2019-05-20T21:44:03.993Z,8.90
2019-05-20T21:46:32.468Z,9.50
2019-05-20T21:48:59.714Z,10.43
2019-05-20T21:51:27.422Z,11.20
2019-05-20T21:53:55.966Z,11.50
2019-05-20T21:56:23.232Z,12.33
2019-05-20T21:58:52.338Z,12.60
2019-05-20T22:01:19.407Z,12.35
2019-05-20T22:03:46.620Z,12.45
2019-05-20T22:06:14.605Z,11.88
2019-05-20T22:08:41.744Z,12.05
2019-05-20T22:11:11.807Z,12.07
2019-05-20T22:13:38.641Z,11.05
2019-05-20T22:16:05.872Z,13.28
2019-05-20T22:18:33.049Z,12.73
2019-05-20T22:21:01.451Z,14.07
2019-05-20T22:23:36.643Z,14.47
2019-05-20T22:26:03.860Z,15.48
2019-05-20T22:28:33.058Z,15.93
2019-05-20T22:31:00.508Z,17.70
2019-05-20T22:33:40.430Z,18.02
2019-05-20T22:35:56.783Z,18.17
2019-05-20T22:38:23.891Z,18.25
2019-05-20T22:40:51.469Z,18.82
2019-05-20T22:43:18.745Z,18.52
2019-05-20T22:45:46.281Z,17.35
2019-05-20T22:48:13.849Z,15.40
2019-05-20T22:50:41.507Z,15.28
2019-05-20T22:53:11.075Z,13.62
2019-05-20T22:55:38.064Z,10.95
2019-05-20T22:58:05.227Z,7.63
2019-05-20T23:00:32.340Z,7.47
2019-05-20T23:02:59.574Z,5.47
2019-05-20T23:05:26.998Z,5.12
2019-05-20T23:07:54.618Z,4.45
2019-05-20T23:10:23.168Z,4.20
2019-05-20T23:12:50.665Z,3.80
2019-05-20T23:15:18.138Z,3.70
2019-05-20T23:17:45.089Z,3.60
2019-05-20T23:20:12.847Z,3.70
2019-05-20T23:22:40.281Z,3.70
2019-05-20T23:25:07.660Z,3.55
2019-05-20T23:27:34.776Z,3.52
2019-05-20T23:30:01.895Z,3.22
2019-05-20T23:32:29.908Z,3.27
2019-05-20T23:34:56.965Z,3.27
2019-05-20T23:37:24.231Z,3.37
2019-05-20T23:39:51.864Z,3.40
2019-05-20T23:42:18.958Z,3.67
2019-05-20T23:44:46.161Z,3.80
2019-05-20T23:47:14.236Z,3.50
2019-05-20T23:49:42.729Z,4.00
2019-05-20T23:52:09.907Z,3.90
2019-05-20T23:54:39.203Z,4.00
2019-05-20T23:57:06.745Z,4.22
2019-05-20T23:59:33.818Z,4.58
